sensor_id;sensor_type;location;lat;lon;timestamp;P1;durP1;ratioP1;P2;durP2;ratioP2
74941;SDS011;63506;49.346;8.798;2023-11-19T00:01:01;2.97;;;2.72;;
74941;SDS011;63506;49.346;8.798;2023-11-19T00:03:32;8.63;;;3.72;;
74941;SDS011;63506;49.346;8.798;2023-11-19T00:06:00;8.68;;;3.67;;
74941;SDS011;63506;49.346;8.798;2023-11-19T00:08:28;4.38;;;3.35;;
74941;SDS011;63506;49.346;8.798;2023-11-19T00:10:55;4.88;;;4.38;;
74941;SDS011;63506;49.346;8.798;2023-11-19T00:13:23;3.35;;;3.05;;
74941;SDS011;63506;49.346;8.798;2023-11-19T00:15:53;4.20;;;3.25;;
74941;SDS011;63506;49.346;8.798;2023-11-19T00:18:20;6.53;;;3.97;;
74941;SDS011;63506;49.346;8.798;2023-11-19T00:20:48;3.67;;;3.30;;
74941;SDS011;63506;49.346;8.798;2023-11-19T00:23:15;4.35;;;3.38;;
74941;SDS011;63506;49.346;8.798;2023-11-19T00:25:42;4.25;;;3.85;;
74941;SDS011;63506;49.346;8.798;2023-11-19T00:28:10;3.90;;;3.60;;
74941;SDS011;63506;49.346;8.798;2023-11-19T00:30:37;3.97;;;3.30;;
74941;SDS011;63506;49.346;8.798;2023-11-19T00:33:07;3.90;;;3.50;;
74941;SDS011;63506;49.346;8.798;2023-11-19T00:35:35;5.90;;;4.53;;
74941;SDS011;63506;49.346;8.798;2023-11-19T00:38:03;4.30;;;3.72;;
74941;SDS011;63506;49.346;8.798;2023-11-19T00:40:30;3.50;;;3.20;;
74941;SDS011;63506;49.346;8.798;2023-11-19T00:42:57;4.63;;;4.13;;
74941;SDS011;63506;49.346;8.798;2023-11-19T00:45:25;3.20;;;3.00;;
74941;SDS011;63506;49.346;8.798;2023-11-19T00:47:53;5.00;;;4.15;;
74941;SDS011;63506;49.346;8.798;2023-11-19T00:50:21;3.97;;;3.50;;
74941;SDS011;63506;49.346;8.798;2023-11-19T00:52:49;4.68;;;4.20;;
74941;SDS011;63506;49.346;8.798;2023-11-19T00:55:17;4.43;;;3.58;;
74941;SDS011;63506;49.346;8.798;2023-11-19T00:57:45;4.72;;;4.30;;
74941;SDS011;63506;49.346;8.798;2023-11-19T01:00:13;6.25;;;4.35;;
74941;SDS011;63506;49.346;8.798;2023-11-19T01:02:44;6.30;;;5.50;;
74941;SDS011;63506;49.346;8.798;2023-11-19T01:05:12;8.45;;;4.40;;
74941;SDS011;63506;49.346;8.798;2023-11-19T01:07:42;6.35;;;5.75;;
74941;SDS011;63506;49.346;8.798;2023-11-19T01:10:09;6.03;;;5.28;;
74941;SDS011;63506;49.346;8.798;2023-11-19T01:12:37;5.85;;;4.93;;
74941;SDS011;63506;49.346;8.798;2023-11-19T01:15:05;5.70;;;4.93;;
74941;SDS011;63506;49.346;8.798;2023-11-19T01:17:34;5.05;;;4.65;;
74941;SDS011;63506;49.346;8.798;2023-11-19T01:20:01;5.38;;;4.88;;
74941;SDS011;63506;49.346;8.798;2023-11-19T01:22:29;21.98;;;6.60;;
74941;SDS011;63506;49.346;8.798;2023-11-19T01:24:58;5.07;;;4.68;;
74941;SDS011;63506;49.346;8.798;2023-11-19T01:27:25;5.15;;;4.50;;
74941;SDS011;63506;49.346;8.798;2023-11-19T01:29:53;6.85;;;4.80;;
74941;SDS011;63506;49.346;8.798;2023-11-19T01:32:22;4.47;;;4.05;;
74941;SDS011;63506;49.346;8.798;2023-11-19T01:34:50;5.00;;;4.53;;
74941;SDS011;63506;49.346;8.798;2023-11-19T01:37:17;5.05;;;4.18;;
74941;SDS011;63506;49.346;8.798;2023-11-19T01:39:44;8.05;;;4.20;;
74941;SDS011;63506;49.346;8.798;2023-11-19T01:42:13;4.68;;;4.00;;
74941;SDS011;63506;49.346;8.798;2023-11-19T01:44:41;4.63;;;4.22;;
74941;SDS011;63506;49.346;8.798;2023-11-19T01:47:08;4.45;;;4.03;;
74941;SDS011;63506;49.346;8.798;2023-11-19T01:49:36;6.05;;;4.63;;
74941;SDS011;63506;49.346;8.798;2023-11-19T01:52:03;5.28;;;4.30;;
74941;SDS011;63506;49.346;8.798;2023-11-19T01:54:31;6.88;;;4.55;;
74941;SDS011;63506;49.346;8.798;2023-11-19T01:56:59;4.40;;;4.00;;
74941;SDS011;63506;49.346;8.798;2023-11-19T01:59:28;6.75;;;5.32;;
74941;SDS011;63506;49.346;8.798;2023-11-19T02:01:55;5.70;;;5.20;;
74941;SDS011;63506;49.346;8.798;2023-11-19T02:04:23;8.75;;;4.25;;
74941;SDS011;63506;49.346;8.798;2023-11-19T02:06:51;4.97;;;4.57;;
74941;SDS011;63506;49.346;8.798;2023-11-19T02:09:21;4.93;;;4.40;;
74941;SDS011;63506;49.346;8.798;2023-11-19T02:11:48;5.05;;;4.57;;
74941;SDS011;63506;49.346;8.798;2023-11-19T02:14:17;4.32;;;3.92;;
74941;SDS011;63506;49.346;8.798;2023-11-19T02:16:47;3.97;;;3.55;;
74941;SDS011;63506;49.346;8.798;2023-11-19T02:19:15;4.07;;;3.78;;
74941;SDS011;63506;49.346;8.798;2023-11-19T02:21:42;4.53;;;3.72;;
74941;SDS011;63506;49.346;8.798;2023-11-19T02:24:09;3.50;;;3.20;;
74941;SDS011;63506;49.346;8.798;2023-11-19T02:26:39;2.78;;;2.58;;
74941;SDS011;63506;49.346;8.798;2023-11-19T02:29:09;3.08;;;2.78;;
74941;SDS011;63506;49.346;8.798;2023-11-19T02:31:39;3.03;;;2.72;;
74941;SDS011;63506;49.346;8.798;2023-11-19T02:34:06;3.60;;;2.63;;
74941;SDS011;63506;49.346;8.798;2023-11-19T02:36:33;1.42;;;1.33;;
74941;SDS011;63506;49.346;8.798;2023-11-19T02:39:04;1.60;;;1.20;;
74941;SDS011;63506;49.346;8.798;2023-11-19T02:41:36;1.65;;;1.27;;
74941;SDS011;63506;49.346;8.798;2023-11-19T02:44:05;1.73;;;1.02;;
74941;SDS011;63506;49.346;8.798;2023-11-19T02:46:34;1.05;;;0.95;;
74941;SDS011;63506;49.346;8.798;2023-11-19T02:49:03;0.80;;;0.80;;
74941;SDS011;63506;49.346;8.798;2023-11-19T02:51:30;1.02;;;0.80;;
74941;SDS011;63506;49.346;8.798;2023-11-19T02:54:01;1.17;;;0.73;;
74941;SDS011;63506;49.346;8.798;2023-11-19T02:56:29;1.48;;;1.10;;
74941;SDS011;63506;49.346;8.798;2023-11-19T02:59:01;0.70;;;0.70;;
74941;SDS011;63506;49.346;8.798;2023-11-19T03:01:35;1.63;;;1.33;;
74941;SDS011;63506;49.346;8.798;2023-11-19T03:04:03;1.48;;;1.10;;
74941;SDS011;63506;49.346;8.798;2023-11-19T03:06:31;1.83;;;1.13;;
74941;SDS011;63506;49.346;8.798;2023-11-19T03:09:00;1.38;;;1.25;;
74941;SDS011;63506;49.346;8.798;2023-11-19T03:11:33;1.30;;;1.20;;
74941;SDS011;63506;49.346;8.798;2023-11-19T03:14:01;1.70;;;1.42;;
74941;SDS011;63506;49.346;8.798;2023-11-19T03:16:29;1.70;;;1.00;;
74941;SDS011;63506;49.346;8.798;2023-11-19T03:18:57;2.13;;;1.60;;
74941;SDS011;63506;49.346;8.798;2023-11-19T03:21:29;1.50;;;1.02;;
74941;SDS011;63506;49.346;8.798;2023-11-19T03:23:57;1.80;;;0.95;;
74941;SDS011;63506;49.346;8.798;2023-11-19T03:26:26;1.48;;;1.20;;
74941;SDS011;63506;49.346;8.798;2023-11-19T03:28:56;3.28;;;1.40;;
74941;SDS011;63506;49.346;8.798;2023-11-19T03:31:26;1.20;;;1.10;;
74941;SDS011;63506;49.346;8.798;2023-11-19T04:01:46;1.90;;;1.60;;
74941;SDS011;63506;49.346;8.798;2023-11-19T04:08:09;1.40;;;1.25;;
74941;SDS011;63506;49.346;8.798;2023-11-19T04:12:11;1.30;;;1.20;;
74941;SDS011;63506;49.346;8.798;2023-11-19T04:14:32;1.73;;;1.60;;
74941;SDS011;63506;49.346;8.798;2023-11-19T04:17:03;2.17;;;1.40;;
74941;SDS011;63506;49.346;8.798;2023-11-19T04:19:31;2.53;;;1.60;;
74941;SDS011;63506;49.346;8.798;2023-11-19T04:21:59;1.15;;;1.05;;
74941;SDS011;63506;49.346;8.798;2023-11-19T04:24:32;1.30;;;1.20;;
74941;SDS011;63506;49.346;8.798;2023-11-19T04:27:01;1.52;;;1.42;;
74941;SDS011;63506;49.346;8.798;2023-11-19T04:29:29;2.22;;;2.03;;
74941;SDS011;63506;49.346;8.798;2023-11-19T04:32:04;1.50;;;1.20;;
74941;SDS011;63506;49.346;8.798;2023-11-19T04:34:42;1.40;;;1.30;;
74941;SDS011;63506;49.346;8.798;2023-11-19T04:37:10;2.33;;;1.75;;
74941;SDS011;63506;49.346;8.798;2023-11-19T04:39:50;1.70;;;1.60;;
74941;SDS011;63506;49.346;8.798;2023-11-19T04:42:19;1.63;;;1.25;;
74941;SDS011;63506;49.346;8.798;2023-11-19T04:47:25;2.17;;;1.98;;
74941;SDS011;63506;49.346;8.798;2023-11-19T04:50:02;3.28;;;2.15;;
74941;SDS011;63506;49.346;8.798;2023-11-19T04:52:51;2.53;;;1.77;;
74941;SDS011;63506;49.346;8.798;2023-11-19T04:55:54;2.40;;;2.20;;
74941;SDS011;63506;49.346;8.798;2023-11-19T04:58:25;2.30;;;1.80;;
74941;SDS011;63506;49.346;8.798;2023-11-19T05:00:55;3.70;;;1.80;;
74941;SDS011;63506;49.346;8.798;2023-11-19T05:03:23;2.38;;;2.17;;
74941;SDS011;63506;49.346;8.798;2023-11-19T05:05:53;2.38;;;2.03;;
74941;SDS011;63506;49.346;8.798;2023-11-19T05:08:22;1.83;;;1.60;;
74941;SDS011;63506;49.346;8.798;2023-11-19T05:10:49;2.13;;;1.95;;
74941;SDS011;63506;49.346;8.798;2023-11-19T05:13:16;2.40;;;1.90;;
74941;SDS011;63506;49.346;8.798;2023-11-19T05:15:46;2.58;;;1.73;;
74941;SDS011;63506;49.346;8.798;2023-11-19T05:18:16;3.05;;;2.03;;
74941;SDS011;63506;49.346;8.798;2023-11-19T05:20:44;2.17;;;1.88;;
74941;SDS011;63506;49.346;8.798;2023-11-19T05:23:12;1.95;;;1.42;;
74941;SDS011;63506;49.346;8.798;2023-11-19T05:25:39;2.03;;;1.60;;
74941;SDS011;63506;49.346;8.798;2023-11-19T05:28:07;2.35;;;1.48;;
74941;SDS011;63506;49.346;8.798;2023-11-19T05:30:34;2.35;;;2.15;;
74941;SDS011;63506;49.346;8.798;2023-11-19T05:33:01;1.98;;;1.67;;
74941;SDS011;63506;49.346;8.798;2023-11-19T05:35:29;2.72;;;1.95;;
74941;SDS011;63506;49.346;8.798;2023-11-19T05:37:57;1.73;;;1.52;;
74941;SDS011;63506;49.346;8.798;2023-11-19T05:40:25;1.90;;;1.75;;
74941;SDS011;63506;49.346;8.798;2023-11-19T05:42:52;2.72;;;2.08;;
74941;SDS011;63506;49.346;8.798;2023-11-19T05:45:19;2.67;;;1.40;;
74941;SDS011;63506;49.346;8.798;2023-11-19T05:47:47;3.38;;;1.70;;
74941;SDS011;63506;49.346;8.798;2023-11-19T05:50:14;5.05;;;1.70;;
74941;SDS011;63506;49.346;8.798;2023-11-19T05:52:41;3.33;;;2.10;;
74941;SDS011;63506;49.346;8.798;2023-11-19T05:55:10;2.35;;;2.15;;
74941;SDS011;63506;49.346;8.798;2023-11-19T05:57:38;3.13;;;1.70;;
74941;SDS011;63506;49.346;8.798;2023-11-19T06:00:07;2.28;;;1.15;;
74941;SDS011;63506;49.346;8.798;2023-11-19T06:02:39;2.13;;;1.83;;
74941;SDS011;63506;49.346;8.798;2023-11-19T06:05:06;1.80;;;1.40;;
74941;SDS011;63506;49.346;8.798;2023-11-19T06:07:35;5.90;;;1.42;;
74941;SDS011;63506;49.346;8.798;2023-11-19T06:10:05;1.70;;;1.60;;
74941;SDS011;63506;49.346;8.798;2023-11-19T06:12:34;2.78;;;2.10;;
74941;SDS011;63506;49.346;8.798;2023-11-19T06:15:04;1.42;;;1.33;;
74941;SDS011;63506;49.346;8.798;2023-11-19T06:17:34;2.08;;;1.40;;
74941;SDS011;63506;49.346;8.798;2023-11-19T06:20:01;1.85;;;1.60;;
74941;SDS011;63506;49.346;8.798;2023-11-19T06:22:31;1.48;;;1.30;;
74941;SDS011;63506;49.346;8.798;2023-11-19T06:24:58;1.85;;;1.60;;
74941;SDS011;63506;49.346;8.798;2023-11-19T06:27:26;3.03;;;1.48;;
74941;SDS011;63506;49.346;8.798;2023-11-19T06:29:54;2.45;;;1.30;;
74941;SDS011;63506;49.346;8.798;2023-11-19T06:32:24;1.15;;;1.05;;
74941;SDS011;63506;49.346;8.798;2023-11-19T06:34:51;1.05;;;0.70;;
74941;SDS011;63506;49.346;8.798;2023-11-19T06:37:20;1.55;;;1.02;;
74941;SDS011;63506;49.346;8.798;2023-11-19T06:39:52;5.25;;;1.10;;
74941;SDS011;63506;49.346;8.798;2023-11-19T06:42:22;1.05;;;0.88;;
74941;SDS011;63506;49.346;8.798;2023-11-19T06:44:49;0.98;;;0.70;;
74941;SDS011;63506;49.346;8.798;2023-11-19T06:47:20;1.50;;;1.00;;
74941;SDS011;63506;49.346;8.798;2023-11-19T07:18:05;1.00;;;0.60;;
74941;SDS011;63506;49.346;8.798;2023-11-19T07:20:35;1.27;;;0.80;;
74941;SDS011;63506;49.346;8.798;2023-11-19T07:23:05;1.13;;;0.73;;
74941;SDS011;63506;49.346;8.798;2023-11-19T07:25:33;1.10;;;0.65;;
74941;SDS011;63506;49.346;8.798;2023-11-19T07:28:01;0.95;;;0.85;;
74941;SDS011;63506;49.346;8.798;2023-11-19T07:30:34;1.45;;;0.85;;
74941;SDS011;63506;49.346;8.798;2023-11-19T07:33:02;1.55;;;0.90;;
74941;SDS011;63506;49.346;8.798;2023-11-19T07:35:31;1.25;;;0.75;;
74941;SDS011;63506;49.346;8.798;2023-11-19T07:37:58;1.00;;;0.90;;
74941;SDS011;63506;49.346;8.798;2023-11-19T07:40:25;0.98;;;0.70;;
74941;SDS011;63506;49.346;8.798;2023-11-19T07:42:53;1.08;;;0.93;;
74941;SDS011;63506;49.346;8.798;2023-11-19T07:45:21;1.48;;;1.02;;
74941;SDS011;63506;49.346;8.798;2023-11-19T07:47:48;2.13;;;0.65;;
74941;SDS011;63506;49.346;8.798;2023-11-19T07:50:19;1.55;;;0.50;;
74941;SDS011;63506;49.346;8.798;2023-11-19T10:31:57;0.80;;;0.63;;
74941;SDS011;63506;49.346;8.798;2023-11-19T10:35:13;1.15;;;0.63;;
74941;SDS011;63506;49.346;8.798;2023-11-19T10:38:15;1.23;;;0.95;;
74941;SDS011;63506;49.346;8.798;2023-11-19T10:41:18;2.17;;;0.80;;
74941;SDS011;63506;49.346;8.798;2023-11-19T10:50:14;1.88;;;0.80;;
74941;SDS011;63506;49.346;8.798;2023-11-19T11:49:58;1.25;;;0.70;;
74941;SDS011;63506;49.346;8.798;2023-11-19T11:52:29;1.00;;;0.80;;
74941;SDS011;63506;49.346;8.798;2023-11-19T11:56:05;1.27;;;1.10;;
74941;SDS011;63506;49.346;8.798;2023-11-19T11:59:01;1.67;;;0.90;;
74941;SDS011;63506;49.346;8.798;2023-11-19T12:01:34;0.73;;;0.70;;
74941;SDS011;63506;49.346;8.798;2023-11-19T12:04:33;2.47;;;0.88;;
74941;SDS011;63506;49.346;8.798;2023-11-19T12:07:36;7.70;;;0.90;;
74941;SDS011;63506;49.346;8.798;2023-11-19T12:10:36;0.90;;;0.73;;
74941;SDS011;63506;49.346;8.798;2023-11-19T12:13:08;1.10;;;1.00;;
74941;SDS011;63506;49.346;8.798;2023-11-19T12:20:18;0.98;;;0.52;;
74941;SDS011;63506;49.346;8.798;2023-11-19T12:24:23;2.30;;;0.73;;
74941;SDS011;63506;49.346;8.798;2023-11-19T12:31:25;2.40;;;1.10;;
74941;SDS011;63506;49.346;8.798;2023-11-19T12:37:02;1.92;;;1.10;;
74941;SDS011;63506;49.346;8.798;2023-11-19T12:52:59;2.00;;;0.98;;
74941;SDS011;63506;49.346;8.798;2023-11-19T12:56:36;1.73;;;1.23;;
74941;SDS011;63506;49.346;8.798;2023-11-19T13:00:01;0.98;;;0.60;;
74941;SDS011;63506;49.346;8.798;2023-11-19T13:03:58;0.68;;;0.60;;
74941;SDS011;63506;49.346;8.798;2023-11-19T13:07:23;1.73;;;0.70;;
74941;SDS011;63506;49.346;8.798;2023-11-19T13:12:44;3.40;;;0.88;;
74941;SDS011;63506;49.346;8.798;2023-11-19T13:18:23;1.45;;;0.85;;
74941;SDS011;63506;49.346;8.798;2023-11-19T13:21:30;1.20;;;0.90;;
74941;SDS011;63506;49.346;8.798;2023-11-19T13:47:18;3.70;;;1.40;;
74941;SDS011;63506;49.346;8.798;2023-11-19T13:49:53;3.63;;;1.35;;
74941;SDS011;63506;49.346;8.798;2023-11-19T13:53:32;5.38;;;1.92;;
74941;SDS011;63506;49.346;8.798;2023-11-19T13:56:14;3.80;;;1.83;;
74941;SDS011;63506;49.346;8.798;2023-11-19T13:59:06;1.80;;;1.42;;
74941;SDS011;63506;49.346;8.798;2023-11-19T14:02:03;3.58;;;1.33;;
74941;SDS011;63506;49.346;8.798;2023-11-19T15:15:32;2.92;;;0.98;;
74941;SDS011;63506;49.346;8.798;2023-11-19T15:18:42;4.70;;;1.52;;
74941;SDS011;63506;49.346;8.798;2023-11-19T15:22:21;1.48;;;0.82;;
